sensor_id;sensor_type;location;lat;lon;timestamp;pressure;altitude;pressure_sealevel;temperature;humidity
9307;BME280;4691;47.612;7.610;2022-12-07T00:03:35;98090.59;;;3.81;100.00
9307;BME280;4691;47.612;7.610;2022-12-07T00:06:02;98084.34;;;3.82;100.00
9307;BME280;4691;47.612;7.610;2022-12-07T00:08:28;98079.44;;;3.76;100.00
9307;BME280;4691;47.612;7.610;2022-12-07T00:10:54;98083.13;;;3.74;100.00
9307;BME280;4691;47.612;7.610;2022-12-07T00:13:20;98091.63;;;3.79;100.00
9307;BME280;4691;47.612;7.610;2022-12-07T00:15:45;98078.31;;;3.80;100.00
9307;BME280;4691;47.612;7.610;2022-12-07T00:18:13;98075.47;;;3.69;100.00
9307;BME280;4691;47.612;7.610;2022-12-07T00:20:38;98080.75;;;3.69;100.00
9307;BME280;4691;47.612;7.610;2022-12-07T00:23:03;98082.47;;;3.70;100.00
9307;BME280;4691;47.612;7.610;2022-12-07T00:25:30;98070.75;;;3.74;100.00
9307;BME280;4691;47.612;7.610;2022-12-07T00:27:55;98071.91;;;3.70;100.00
9307;BME280;4691;47.612;7.610;2022-12-07T00:30:23;98073.59;;;3.71;100.00
9307;BME280;4691;47.612;7.610;2022-12-07T00:32:49;98075.66;;;3.66;100.00
9307;BME280;4691;47.612;7.610;2022-12-07T00:35:14;98075.47;;;3.69;100.00
9307;BME280;4691;47.612;7.610;2022-12-07T00:37:40;98069.63;;;3.64;100.00
9307;BME280;4691;47.612;7.610;2022-12-07T00:40:06;98071.91;;;3.70;100.00
9307;BME280;4691;47.612;7.610;2022-12-07T00:42:31;98069.91;;;3.59;100.00
9307;BME280;4691;47.612;7.610;2022-12-07T00:44:57;98074.44;;;3.71;100.00
9307;BME280;4691;47.612;7.610;2022-12-07T00:47:22;98070.78;;;3.60;100.00
9307;BME280;4691;47.612;7.610;2022-12-07T00:49:47;98075.09;;;3.61;100.00
9307;BME280;4691;47.612;7.610;2022-12-07T00:52:13;98072.66;;;3.58;100.00
9307;BME280;4691;47.612;7.610;2022-12-07T00:54:39;98066.69;;;3.54;100.00
9307;BME280;4691;47.612;7.610;2022-12-07T00:57:05;98064.06;;;3.68;100.00
9307;BME280;4691;47.612;7.610;2022-12-07T00:59:30;98071.69;;;3.59;100.00
9307;BME280;4691;47.612;7.610;2022-12-07T01:01:55;98071.63;;;3.60;100.00
9307;BME280;4691;47.612;7.610;2022-12-07T01:04:21;98080.59;;;3.58;100.00
9307;BME280;4691;47.612;7.610;2022-12-07T01:06:46;98083.41;;;3.55;100.00
9307;BME280;4691;47.612;7.610;2022-12-07T01:09:11;98069.53;;;3.65;100.00
9307;BME280;4691;47.612;7.610;2022-12-07T01:11:37;98069.03;;;3.59;100.00
9307;BME280;4691;47.612;7.610;2022-12-07T01:14:02;98067.94;;;3.63;100.00
9307;BME280;4691;47.612;7.610;2022-12-07T01:16:29;98069.53;;;3.65;100.00
9307;BME280;4691;47.612;7.610;2022-12-07T01:18:55;98072.66;;;3.58;100.00
9307;BME280;4691;47.612;7.610;2022-12-07T01:21:22;98076.22;;;3.57;100.00
9307;BME280;4691;47.612;7.610;2022-12-07T01:23:48;98075.03;;;3.62;100.00
9307;BME280;4691;47.612;7.610;2022-12-07T01:26:16;98079.44;;;3.62;100.00
9307;BME280;4691;47.612;7.610;2022-12-07T01:28:42;98078.59;;;3.61;100.00
9307;BME280;4691;47.612;7.610;2022-12-07T01:31:10;98089.91;;;3.63;100.00
9307;BME280;4691;47.612;7.610;2022-12-07T01:33:37;98084.16;;;3.57;100.00
9307;BME280;4691;47.612;7.610;2022-12-07T01:36:05;98085.09;;;3.56;100.00
9307;BME280;4691;47.612;7.610;2022-12-07T01:38:31;98080.94;;;3.52;100.00
9307;BME280;4691;47.612;7.610;2022-12-07T01:40:58;98083.41;;;3.55;100.00
9307;BME280;4691;47.612;7.610;2022-12-07T01:43:26;98080.84;;;3.53;100.00
9307;BME280;4691;47.612;7.610;2022-12-07T01:45:52;98076.41;;;3.54;100.00
9307;BME280;4691;47.612;7.610;2022-12-07T01:48:20;98073.56;;;3.57;100.00
9307;BME280;4691;47.612;7.610;2022-12-07T01:50:48;98077.19;;;3.56;100.00
9307;BME280;4691;47.612;7.610;2022-12-07T01:53:16;98079.81;;;3.56;100.00
9307;BME280;4691;47.612;7.610;2022-12-07T01:55:46;98081.50;;;3.57;100.00
9307;BME280;4691;47.612;7.610;2022-12-07T01:58:15;98081.69;;;3.54;100.00
9307;BME280;4691;47.612;7.610;2022-12-07T02:00:41;98070.78;;;3.60;100.00
9307;BME280;4691;47.612;7.610;2022-12-07T02:03:18;98072.66;;;3.58;100.00
9307;BME280;4691;47.612;7.610;2022-12-07T02:05:46;98064.72;;;3.58;100.00
9307;BME280;4691;47.612;7.610;2022-12-07T02:08:12;98060.34;;;3.57;100.00
9307;BME280;4691;47.612;7.610;2022-12-07T02:10:38;98059.63;;;3.55;100.00
9307;BME280;4691;47.612;7.610;2022-12-07T02:13:27;98051.84;;;3.52;100.00
9307;BME280;4691;47.612;7.610;2022-12-07T02:21:26;98038.63;;;3.52;100.00
9307;BME280;4691;47.612;7.610;2022-12-07T02:24:03;98029.97;;;3.49;100.00
9307;BME280;4691;47.612;7.610;2022-12-07T02:38:03;98025.06;;;3.58;100.00
9307;BME280;4691;47.612;7.610;2022-12-07T02:40:31;98021.00;;;3.52;100.00
9307;BME280;4691;47.612;7.610;2022-12-07T02:43:17;98011.72;;;3.59;100.00
9307;BME280;4691;47.612;7.610;2022-12-07T02:45:45;98009.41;;;3.55;100.00
9307;BME280;4691;47.612;7.610;2022-12-07T02:48:13;98012.22;;;3.52;100.00
9307;BME280;4691;47.612;7.610;2022-12-07T02:50:45;98009.41;;;3.55;100.00
9307;BME280;4691;47.612;7.610;2022-12-07T02:53:30;98015.81;;;3.51;100.00
9307;BME280;4691;47.612;7.610;2022-12-07T02:55:56;98013.16;;;3.51;100.00
9307;BME280;4691;47.612;7.610;2022-12-07T03:03:47;98020.44;;;3.47;100.00
9307;BME280;4691;47.612;7.610;2022-12-07T03:06:20;98017.13;;;3.58;100.00
9307;BME280;4691;47.612;7.610;2022-12-07T03:11:25;98012.31;;;3.50;100.00
9307;BME280;4691;47.612;7.610;2022-12-07T03:14:26;98019.00;;;3.56;100.00
9307;BME280;4691;47.612;7.610;2022-12-07T03:19:45;97964.63;;;3.52;100.00
9307;BME280;4691;47.612;7.610;2022-12-07T03:22:13;97969.19;;;3.49;100.00
9307;BME280;4691;47.612;7.610;2022-12-07T03:24:45;97980.41;;;3.53;100.00
9307;BME280;4691;47.612;7.610;2022-12-07T03:27:33;97983.13;;;3.52;100.00
9307;BME280;4691;47.612;7.610;2022-12-07T03:30:03;97977.84;;;3.52;100.00
9307;BME280;4691;47.612;7.610;2022-12-07T03:32:36;97982.97;;;3.55;100.00
9307;BME280;4691;47.612;7.610;2022-12-07T03:37:40;97996.19;;;3.55;100.00
9307;BME280;4691;47.612;7.610;2022-12-07T03:42:56;98011.09;;;3.56;100.00
9307;BME280;4691;47.612;7.610;2022-12-07T03:45:31;98012.13;;;3.53;100.00
9307;BME280;4691;47.612;7.610;2022-12-07T03:48:20;98019.59;;;3.61;100.00
9307;BME280;4691;47.612;7.610;2022-12-07T03:51:02;98016.38;;;3.56;100.00
9307;BME280;4691;47.612;7.610;2022-12-07T03:53:46;98028.63;;;3.57;100.00
9307;BME280;4691;47.612;7.610;2022-12-07T03:56:14;98015.34;;;3.58;100.00
9307;BME280;4691;47.612;7.610;2022-12-07T03:58:39;98019.59;;;3.61;100.00
9307;BME280;4691;47.612;7.610;2022-12-07T04:01:06;98014.00;;;3.51;100.00
9307;BME280;4691;47.612;7.610;2022-12-07T04:03:31;98010.25;;;3.55;100.00
9307;BME280;4691;47.612;7.610;2022-12-07T04:05:56;98009.19;;;3.58;100.00
9307;BME280;4691;47.612;7.610;2022-12-07T04:08:24;97993.91;;;3.48;100.00
9307;BME280;4691;47.612;7.610;2022-12-07T04:10:49;97989.28;;;3.52;100.00
9307;BME280;4691;47.612;7.610;2022-12-07T04:13:15;97982.19;;;3.53;100.00
9307;BME280;4691;47.612;7.610;2022-12-07T04:15:40;97985.97;;;3.48;100.00
9307;BME280;4691;47.612;7.610;2022-12-07T04:18:05;97969.34;;;3.46;100.00
9307;BME280;4691;47.612;7.610;2022-12-07T04:20:30;97963.69;;;3.53;100.00
9307;BME280;4691;47.612;7.610;2022-12-07T04:22:56;97960.09;;;3.54;100.00
9307;BME280;4691;47.612;7.610;2022-12-07T04:25:21;97964.94;;;3.47;100.00
9307;BME280;4691;47.612;7.610;2022-12-07T04:27:47;97963.91;;;3.49;100.00
9307;BME280;4691;47.612;7.610;2022-12-07T04:30:12;97974.63;;;3.46;100.00
9307;BME280;4691;47.612;7.610;2022-12-07T04:32:38;97965.66;;;3.49;100.00
9307;BME280;4691;47.612;7.610;2022-12-07T04:35:03;97959.34;;;3.52;100.00
9307;BME280;4691;47.612;7.610;2022-12-07T04:37:29;97964.63;;;3.52;100.00
9307;BME280;4691;47.612;7.610;2022-12-07T04:39:54;97957.00;;;3.47;100.00
9307;BME280;4691;47.612;7.610;2022-12-07T04:42:20;97959.94;;;3.42;100.00
9307;BME280;4691;47.612;7.610;2022-12-07T04:44:45;97956.25;;;3.45;100.00
9307;BME280;4691;47.612;7.610;2022-12-07T04:47:10;97955.56;;;3.41;100.00
9307;BME280;4691;47.612;7.610;2022-12-07T04:49:36;97965.22;;;3.42;100.00
9307;BME280;4691;47.612;7.610;2022-12-07T04:52:01;97957.28;;;3.42;100.00
9307;BME280;4691;47.612;7.610;2022-12-07T04:54:26;97951.81;;;3.45;100.00
9307;BME280;4691;47.612;7.610;2022-12-07T04:56:52;97961.63;;;3.43;100.00
9307;BME280;4691;47.612;7.610;2022-12-07T04:59:18;97967.47;;;3.48;100.00
9307;BME280;4691;47.612;7.610;2022-12-07T05:01:44;97980.81;;;3.47;100.00
9307;BME280;4691;47.612;7.610;2022-12-07T05:04:09;97986.94;;;3.47;100.00
9307;BME280;4691;47.612;7.610;2022-12-07T05:06:35;98005.63;;;3.44;100.00
9307;BME280;4691;47.612;7.610;2022-12-07T05:09:01;98008.44;;;3.41;100.00
9307;BME280;4691;47.612;7.610;2022-12-07T05:11:27;98012.59;;;3.45;100.00
9307;BME280;4691;47.612;7.610;2022-12-07T05:14:16;98021.38;;;3.46;100.00
9307;BME280;4691;47.612;7.610;2022-12-07T05:16:43;98017.13;;;3.43;100.00
9307;BME280;4691;47.612;7.610;2022-12-07T05:19:09;98020.72;;;3.42;100.00
9307;BME280;4691;47.612;7.610;2022-12-07T05:21:36;98013.06;;;3.38;100.00
9307;BME280;4691;47.612;7.610;2022-12-07T05:24:01;98016.75;;;3.35;100.00
9307;BME280;4691;47.612;7.610;2022-12-07T05:26:27;98008.44;;;3.41;100.00
9307;BME280;4691;47.612;7.610;2022-12-07T05:28:55;98006.34;;;3.46;100.00
9307;BME280;4691;47.612;7.610;2022-12-07T05:31:21;98006.19;;;3.35;100.00
9307;BME280;4691;47.612;7.610;2022-12-07T05:33:47;98001.47;;;3.40;100.00
9307;BME280;4691;47.612;7.610;2022-12-07T05:36:12;98014.09;;;3.35;100.00
9307;BME280;4691;47.612;7.610;2022-12-07T05:38:38;98013.91;;;3.38;100.00
9307;BME280;4691;47.612;7.610;2022-12-07T05:41:04;98025.16;;;3.42;100.00
9307;BME280;4691;47.612;7.610;2022-12-07T05:43:30;98015.44;;;3.42;100.00
9307;BME280;4691;47.612;7.610;2022-12-07T05:45:56;98019.19;;;3.38;100.00
9307;BME280;4691;47.612;7.610;2022-12-07T05:48:22;98034.03;;;3.41;100.00
9307;BME280;4691;47.612;7.610;2022-12-07T05:50:48;98030.53;;;3.40;100.00
9307;BME280;4691;47.612;7.610;2022-12-07T05:53:14;98050.56;;;3.44;100.00
9307;BME280;4691;47.612;7.610;2022-12-07T05:55:39;98062.16;;;3.42;100.00
9307;BME280;4691;47.612;7.610;2022-12-07T05:58:05;98059.81;;;3.37;100.00
9307;BME280;4691;47.612;7.610;2022-12-07T06:00:49;98095.28;;;3.33;100.00
9307;BME280;4691;47.612;7.610;2022-12-07T06:03:14;98105.00;;;3.33;100.00
9307;BME280;4691;47.612;7.610;2022-12-07T06:05:40;98108.88;;;3.27;100.00
9307;BME280;4691;47.612;7.610;2022-12-07T06:08:06;98124.53;;;3.30;100.00
9307;BME280;4691;47.612;7.610;2022-12-07T06:10:32;98137.75;;;3.30;100.00
9307;BME280;4691;47.612;7.610;2022-12-07T06:12:57;98146.78;;;3.26;100.00
9307;BME280;4691;47.612;7.610;2022-12-07T06:15:22;98141.69;;;3.23;100.00
9307;BME280;4691;47.612;7.610;2022-12-07T06:17:48;98142.72;;;3.20;100.00
9307;BME280;4691;47.612;7.610;2022-12-07T06:20:13;98136.75;;;3.17;100.00
9307;BME280;4691;47.612;7.610;2022-12-07T06:22:39;98130.44;;;3.19;100.00
9307;BME280;4691;47.612;7.610;2022-12-07T06:25:05;98113.63;;;3.06;100.00
9307;BME280;4691;47.612;7.610;2022-12-07T06:27:30;98109.06;;;3.08;100.00
9307;BME280;4691;47.612;7.610;2022-12-07T06:29:57;98097.47;;;2.96;100.00
9307;BME280;4691;47.612;7.610;2022-12-07T06:32:23;98080.63;;;2.83;100.00
9307;BME280;4691;47.612;7.610;2022-12-07T06:34:48;98063.06;;;2.82;100.00
9307;BME280;4691;47.612;7.610;2022-12-07T06:37:13;98042.25;;;2.92;100.00
9307;BME280;4691;47.612;7.610;2022-12-07T06:39:39;98036.47;;;2.85;100.00
9307;BME280;4691;47.612;7.610;2022-12-07T06:42:04;98020.06;;;2.80;100.00
9307;BME280;4691;47.612;7.610;2022-12-07T06:44:29;98008.78;;;2.78;100.00
9307;BME280;4691;47.612;7.610;2022-12-07T06:46:55;98006.13;;;2.78;100.00
9307;BME280;4691;47.612;7.610;2022-12-07T06:49:21;98002.91;;;2.73;100.00
9307;BME280;4691;47.612;7.610;2022-12-07T06:51:46;97990.06;;;2.67;100.00
9307;BME280;4691;47.612;7.610;2022-12-07T06:54:13;97978.00;;;2.63;100.00
9307;BME280;4691;47.612;7.610;2022-12-07T06:56:39;97977.50;;;2.56;100.00
9307;BME280;4691;47.612;7.610;2022-12-07T06:59:05;97960.16;;;2.52;100.00
9307;BME280;4691;47.612;7.610;2022-12-07T07:01:32;97961.19;;;2.49;100.00
9307;BME280;4691;47.612;7.610;2022-12-07T07:03:58;97961.78;;;2.54;100.00
9307;BME280;4691;47.612;7.610;2022-12-07T07:06:23;97961.00;;;2.52;100.00
9307;BME280;4691;47.612;7.610;2022-12-07T07:08:49;97964.75;;;2.48;100.00
9307;BME280;4691;47.612;7.610;2022-12-07T07:11:14;97959.56;;;2.47;100.00
9307;BME280;4691;47.612;7.610;2022-12-07T07:13:40;97974.38;;;2.49;100.00
9307;BME280;4691;47.612;7.610;2022-12-07T07:16:06;97974.09;;;2.54;100.00
9307;BME280;4691;47.612;7.610;2022-12-07T07:18:31;97984.16;;;2.47;100.00
9307;BME280;4691;47.612;7.610;2022-12-07T07:20:56;97982.44;;;2.46;100.00
9307;BME280;4691;47.612;7.610;2022-12-07T07:23:22;97974.09;;;2.54;100.00
9307;BME280;4691;47.612;7.610;2022-12-07T07:25:48;97982.31;;;2.49;100.00
9307;BME280;4691;47.612;7.610;2022-12-07T07:28:14;97976.28;;;2.61;100.00
9307;BME280;4691;47.612;7.610;2022-12-07T07:30:40;97991.53;;;2.56;100.00
9307;BME280;4691;47.612;7.610;2022-12-07T07:33:06;97995.38;;;2.51;100.00
9307;BME280;4691;47.612;7.610;2022-12-07T07:35:33;98002.09;;;2.56;100.00
9307;BME280;4691;47.612;7.610;2022-12-07T07:37:58;98003.63;;;2.60;100.00
9307;BME280;4691;47.612;7.610;2022-12-07T07:40:24;98013.22;;;2.61;100.00
9307;BME280;4691;47.612;7.610;2022-12-07T07:42:58;98023.59;;;2.65;100.00
9307;BME280;4691;47.612;7.610;2022-12-07T07:45:25;98019.00;;;2.68;100.00
9307;BME280;4691;47.612;7.610;2022-12-07T07:47:51;98019.84;;;2.69;100.00
9307;BME280;4691;47.612;7.610;2022-12-07T07:50:16;98022.56;;;2.67;100.00
9307;BME280;4691;47.612;7.610;2022-12-07T07:52:43;98031.38;;;2.68;100.00
9307;BME280;4691;47.612;7.610;2022-12-07T07:55:09;98033.25;;;2.66;100.00
9307;BME280;4691;47.612;7.610;2022-12-07T07:57:35;98034.53;;;2.58;100.00
9307;BME280;4691;47.612;7.610;2022-12-07T08:00:05;98042.66;;;2.70;100.00
9307;BME280;4691;47.612;7.610;2022-12-07T08:02:31;98045.31;;;2.70;100.00
9307;BME280;4691;47.612;7.610;2022-12-07T08:04:56;98049.47;;;2.74;100.00
9307;BME280;4691;47.612;7.610;2022-12-07T08:07:21;98041.75;;;2.85;100.00
9307;BME280;4691;47.612;7.610;2022-12-07T08:09:47;98041.41;;;2.91;100.00
9307;BME280;4691;47.612;7.610;2022-12-07T08:12:15;98050.38;;;3.03;100.00
9307;BME280;4691;47.612;7.610;2022-12-07T08:14:40;98068.25;;;3.14;100.00
9307;BME280;4691;47.612;7.610;2022-12-07T08:17:06;98081.25;;;3.02;100.00
9307;BME280;4691;47.612;7.610;2022-12-07T08:19:32;98077.69;;;3.03;100.00
9307;BME280;4691;47.612;7.610;2022-12-07T08:21:58;98088.00;;;3.22;100.00
9307;BME280;4691;47.612;7.610;2022-12-07T08:24:23;98096.31;;;3.31;100.00
9307;BME280;4691;47.612;7.610;2022-12-07T08:26:50;98128.25;;;3.12;100.00
9307;BME280;4691;47.612;7.610;2022-12-07T08:29:15;98137.22;;;3.39;100.00
9307;BME280;4691;47.612;7.610;2022-12-07T08:31:41;98161.06;;;3.38;100.00
9307;BME280;4691;47.612;7.610;2022-12-07T08:34:06;98181.56;;;3.34;100.00
9307;BME280;4691;47.612;7.610;2022-12-07T08:36:31;98201.16;;;3.30;100.00
9307;BME280;4691;47.612;7.610;2022-12-07T08:38:57;98196.66;;;3.46;100.00
9307;BME280;4691;47.612;7.610;2022-12-07T08:41:22;98216.66;;;3.36;100.00
9307;BME280;4691;47.612;7.610;2022-12-07T08:43:47;98216.31;;;3.42;100.00
9307;BME280;4691;47.612;7.610;2022-12-07T08:46:21;98220.38;;;3.48;100.00
9307;BME280;4691;47.612;7.610;2022-12-07T08:48:57;98218.38;;;3.37;100.00
9307;BME280;4691;47.612;7.610;2022-12-07T08:51:24;98221.72;;;3.25;100.00
9307;BME280;4691;47.612;7.610;2022-12-07T08:53:50;98213.41;;;3.31;100.00
9307;BME280;4691;47.612;7.610;2022-12-07T08:56:17;98212.44;;;3.18;100.00
9307;BME280;4691;47.612;7.610;2022-12-07T08:58:43;98202.81;;;3.17;100.00
9307;BME280;4691;47.612;7.610;2022-12-07T09:01:08;98208.69;;;3.22;100.00
9307;BME280;4691;47.612;7.610;2022-12-07T09:03:34;98215.69;;;3.07;100.00
9307;BME280;4691;47.612;7.610;2022-12-07T09:05:59;98214.16;;;3.03;100.00
9307;BME280;4691;47.612;7.610;2022-12-07T09:08:29;98208.38;;;2.96;100.00
9307;BME280;4691;47.612;7.610;2022-12-07T09:10:58;98216.22;;;2.82;100.00
9307;BME280;4691;47.612;7.610;2022-12-07T09:13:24;98216.03;;;2.85;100.00
9307;BME280;4691;47.612;7.610;2022-12-07T09:15:49;98210.75;;;2.85;100.00
9307;BME280;4691;47.612;7.610;2022-12-07T09:18:15;98221.50;;;2.82;100.00
9307;BME280;4691;47.612;7.610;2022-12-07T09:20:40;98213.00;;;2.77;100.00
9307;BME280;4691;47.612;7.610;2022-12-07T09:23:06;98213.94;;;2.76;100.00
9307;BME280;4691;47.612;7.610;2022-12-07T09:25:33;98222.63;;;2.78;100.00
9307;BME280;4691;47.612;7.610;2022-12-07T09:27:58;98229.81;;;3.22;100.00
9307;BME280;4691;47.612;7.610;2022-12-07T09:30:24;98261.38;;;3.55;100.00
9307;BME280;4691;47.612;7.610;2022-12-07T09:32:52;98294.72;;;3.88;100.00
9307;BME280;4691;47.612;7.610;2022-12-07T09:35:18;98347.56;;;4.48;100.00
9307;BME280;4691;47.612;7.610;2022-12-07T09:37:43;98423.50;;;4.48;100.00
9307;BME280;4691;47.612;7.610;2022-12-07T09:40:08;98473.91;;;5.48;100.00
9307;BME280;4691;47.612;7.610;2022-12-07T09:42:39;98552.81;;;4.86;100.00
9307;BME280;4691;47.612;7.610;2022-12-07T09:45:10;98576.06;;;4.34;100.00
9307;BME280;4691;47.612;7.610;2022-12-07T09:47:37;98571.94;;;3.81;100.00
9307;BME280;4691;47.612;7.610;2022-12-07T09:50:11;98536.84;;;3.62;100.00
9307;BME280;4691;47.612;7.610;2022-12-07T09:52:37;98528.25;;;4.06;100.00
9307;BME280;4691;47.612;7.610;2022-12-07T09:55:03;98582.47;;;5.51;100.00
9307;BME280;4691;47.612;7.610;2022-12-07T09:57:31;98626.75;;;6.64;100.00
9307;BME280;4691;47.612;7.610;2022-12-07T10:00:02;98691.75;;;7.00;100.00
9307;BME280;4691;47.612;7.610;2022-12-07T10:02:50;98742.56;;;8.02;100.00
9307;BME280;4691;47.612;7.610;2022-12-07T10:05:25;98783.19;;;7.78;100.00
9307;BME280;4691;47.612;7.610;2022-12-07T10:07:52;98795.63;;;6.82;100.00
9307;BME280;4691;47.612;7.610;2022-12-07T10:10:23;98774.38;;;5.50;100.00
9307;BME280;4691;47.612;7.610;2022-12-07T10:15:19;98679.03;;;4.87;100.00
9307;BME280;4691;47.612;7.610;2022-12-07T10:17:50;98648.44;;;5.86;100.00
9307;BME280;4691;47.612;7.610;2022-12-07T10:20:23;98718.69;;;8.26;100.00
9307;BME280;4691;47.612;7.610;2022-12-07T10:23:14;98739.81;;;6.82;100.00
9307;BME280;4691;47.612;7.610;2022-12-07T10:25:39;98725.91;;;7.06;100.00
9307;BME280;4691;47.612;7.610;2022-12-07T10:28:16;98735.78;;;5.75;100.00
9307;BME280;4691;47.612;7.610;2022-12-07T10:30:59;98705.22;;;5.23;100.00
9307;BME280;4691;47.612;7.610;2022-12-07T10:33:48;98688.16;;;5.43;100.00
9307;BME280;4691;47.612;7.610;2022-12-07T10:36:35;98667.63;;;5.16;100.00
9307;BME280;4691;47.612;7.610;2022-12-07T10:39:16;98642.84;;;5.32;100.00
9307;BME280;4691;47.612;7.610;2022-12-07T10:44:24;98625.72;;;5.37;100.00
9307;BME280;4691;47.612;7.610;2022-12-07T11:00:21;98609.25;;;5.02;100.00
9307;BME280;4691;47.612;7.610;2022-12-07T11:06:23;98712.31;;;9.15;100.00
9307;BME280;4691;47.612;7.610;2022-12-07T11:14:56;98682.91;;;5.72;100.00
9307;BME280;4691;47.612;7.610;2022-12-07T11:17:50;98649.72;;;5.64;100.00
9307;BME280;4691;47.612;7.610;2022-12-07T11:21:07;98629.97;;;5.26;100.00
9307;BME280;4691;47.612;7.610;2022-12-07T11:23:48;98626.84;;;5.03;100.00
9307;BME280;4691;47.612;7.610;2022-12-07T11:31:37;98604.09;;;5.15;100.00
9307;BME280;4691;47.612;7.610;2022-12-07T11:34:13;98601.38;;;5.00;100.00
9307;BME280;4691;47.612;7.610;2022-12-07T11:36:48;98606.88;;;5.28;100.00
9307;BME280;4691;47.612;7.610;2022-12-07T11:41:46;98631.09;;;8.21;100.00
9307;BME280;4691;47.612;7.610;2022-12-07T11:44:22;98665.50;;;8.87;100.00
9307;BME280;4691;47.612;7.610;2022-12-07T11:47:15;98699.38;;;7.58;100.00
9307;BME280;4691;47.612;7.610;2022-12-07T11:49:56;98679.38;;;6.98;100.00
9307;BME280;4691;47.612;7.610;2022-12-07T11:52:32;98675.78;;;5.58;100.00
9307;BME280;4691;47.612;7.610;2022-12-07T11:55:01;98642.94;;;5.30;100.00
9307;BME280;4691;47.612;7.610;2022-12-07T11:57:38;98618.25;;;5.44;100.00
9307;BME280;4691;47.612;7.610;2022-12-07T12:00:15;98617.34;;;5.15;100.00
9307;BME280;4691;47.612;7.610;2022-12-07T12:02:48;98614.44;;;5.19;100.00
9307;BME280;4691;47.612;7.610;2022-12-07T12:05:17;98621.28;;;5.52;100.00
9307;BME280;4691;47.612;7.610;2022-12-07T12:07:44;98623.94;;;5.38;100.00
9307;BME280;4691;47.612;7.610;2022-12-07T12:10:40;98614.22;;;5.53;100.00
9307;BME280;4691;47.612;7.610;2022-12-07T12:20:48;98631.78;;;6.13;100.00
9307;BME280;4691;47.612;7.610;2022-12-07T12:25:52;98640.38;;;5.87;100.00
9307;BME280;4691;47.612;7.610;2022-12-07T12:28:27;98642.78;;;6.06;100.00
9307;BME280;4691;47.612;7.610;2022-12-07T12:31:31;98636.59;;;5.92;100.00
9307;BME280;4691;47.612;7.610;2022-12-07T12:34:01;98639.66;;;6.14;100.00
9307;BME280;4691;47.612;7.610;2022-12-07T12:36:44;98635.72;;;6.34;100.00
9307;BME280;4691;47.612;7.610;2022-12-07T12:39:19;98642.09;;;5.88;100.00
9307;BME280;4691;47.612;7.610;2022-12-07T12:41:53;98644.88;;;5.42;100.00
9307;BME280;4691;47.612;7.610;2022-12-07T12:46:57;98624.50;;;5.57;100.00
9307;BME280;4691;47.612;7.610;2022-12-07T12:51:50;98618.81;;;5.49;100.00
9307;BME280;4691;47.612;7.610;2022-12-07T12:54:26;98612.22;;;5.71;100.00
9307;BME280;4691;47.612;7.610;2022-12-07T12:56:59;98611.75;;;5.64;100.00
9307;BME280;4691;47.612;7.610;2022-12-07T12:59:42;98603.69;;;5.80;100.00
9307;BME280;4691;47.612;7.610;2022-12-07T13:02:22;98607.16;;;5.96;100.00
9307;BME280;4691;47.612;7.610;2022-12-07T13:07:54;98605.78;;;6.18;100.00
9307;BME280;4691;47.612;7.610;2022-12-07T13:13:03;98617.34;;;5.74;100.00
9307;BME280;4691;47.612;7.610;2022-12-07T13:15:39;98612.22;;;5.85;100.00
9307;BME280;4691;47.612;7.610;2022-12-07T13:23:10;98619.13;;;5.87;100.00
9307;BME280;4691;47.612;7.610;2022-12-07T13:25:51;98616.41;;;5.60;100.00
9307;BME280;4691;47.612;7.610;2022-12-07T13:28:20;98616.59;;;5.86;100.00
9307;BME280;4691;47.612;7.610;2022-12-07T13:30:58;98611.28;;;5.86;100.00
9307;BME280;4691;47.612;7.610;2022-12-07T13:33:27;98610.38;;;6.01;100.00
9307;BME280;4691;47.612;7.610;2022-12-07T13:35:54;98616.94;;;5.80;100.00
9307;BME280;4691;47.612;7.610;2022-12-07T13:38:31;98625.88;;;5.79;100.00
9307;BME280;4691;47.612;7.610;2022-12-07T13:41:26;98621.16;;;6.13;100.00
9307;BME280;4691;47.612;7.610;2022-12-07T13:46:31;98644.09;;;5.99;100.00
9307;BME280;4691;47.612;7.610;2022-12-07T13:48:59;98630.81;;;6.14;100.00
9307;BME280;4691;47.612;7.610;2022-12-07T13:51:26;98632.63;;;7.49;100.00
9307;BME280;4691;47.612;7.610;2022-12-07T13:54:00;98629.13;;;9.10;100.00
9307;BME280;4691;47.612;7.610;2022-12-07T13:56:32;98643.84;;;9.73;100.00
9307;BME280;4691;47.612;7.610;2022-12-07T13:58:58;98646.81;;;9.81;100.00
9307;BME280;4691;47.612;7.610;2022-12-07T14:01:24;98639.53;;;11.06;100.00
9307;BME280;4691;47.612;7.610;2022-12-07T14:03:50;98634.59;;;10.35;100.00
9307;BME280;4691;47.612;7.610;2022-12-07T14:06:23;98622.28;;;10.21;100.00
9307;BME280;4691;47.612;7.610;2022-12-07T14:09:28;98621.84;;;11.15;100.00
9307;BME280;4691;47.612;7.610;2022-12-07T14:14:31;98611.28;;;11.97;100.00
9307;BME280;4691;47.612;7.610;2022-12-07T14:17:11;98601.56;;;12.77;100.00
9307;BME280;4691;47.612;7.610;2022-12-07T14:19:48;98627.19;;;11.89;100.00
9307;BME280;4691;47.612;7.610;2022-12-07T14:24:45;98627.53;;;12.67;100.00
9307;BME280;4691;47.612;7.610;2022-12-07T14:27:23;98614.00;;;12.88;100.00
9307;BME280;4691;47.612;7.610;2022-12-07T14:29:55;98632.81;;;11.44;100.00
9307;BME280;4691;47.612;7.610;2022-12-07T14:32:26;98656.06;;;12.06;100.00
9307;BME280;4691;47.612;7.610;2022-12-07T14:34:56;98640.69;;;10.92;100.00
9307;BME280;4691;47.612;7.610;2022-12-07T14:37:22;98647.06;;;10.01;100.00
9307;BME280;4691;47.612;7.610;2022-12-07T14:39:47;98660.06;;;9.12;100.00
9307;BME280;4691;47.612;7.610;2022-12-07T14:42:12;98690.09;;;7.64;100.00
9307;BME280;4691;47.612;7.610;2022-12-07T14:44:38;98694.28;;;7.28;100.00
9307;BME280;4691;47.612;7.610;2022-12-07T14:47:03;98684.00;;;7.49;100.00
9307;BME280;4691;47.612;7.610;2022-12-07T14:49:28;98672.84;;;7.57;100.00
9307;BME280;4691;47.612;7.610;2022-12-07T14:51:54;98681.88;;;7.02;100.00
9307;BME280;4691;47.612;7.610;2022-12-07T14:54:20;98676.81;;;6.70;100.00
9307;BME280;4691;47.612;7.610;2022-12-07T14:56:49;98690.91;;;6.43;100.00
9307;BME280;4691;47.612;7.610;2022-12-07T14:59:16;98679.94;;;6.06;100.00
9307;BME280;4691;47.612;7.610;2022-12-07T15:01:42;98688.66;;;6.23;100.00
9307;BME280;4691;47.612;7.610;2022-12-07T15:04:07;98685.63;;;6.15;100.00
9307;BME280;4691;47.612;7.610;2022-12-07T15:06:33;98687.91;;;6.06;100.00
9307;BME280;4691;47.612;7.610;2022-12-07T15:08:58;98683.25;;;6.10;100.00
9307;BME280;4691;47.612;7.610;2022-12-07T15:11:23;98673.47;;;6.10;100.00
9307;BME280;4691;47.612;7.610;2022-12-07T15:13:49;98670.66;;;5.99;100.00
9307;BME280;4691;47.612;7.610;2022-12-07T15:16:33;98680.75;;;5.93;100.00
9307;BME280;4691;47.612;7.610;2022-12-07T15:18:59;98667.66;;;5.75;100.00